sensor_id;sensor_type;location;lat;lon;timestamp;P1;durP1;ratioP1;P2;durP2;ratioP2
50393;SDS011;36308;46.312;25.288;2022-08-24T00:01:16;6.13;;;3.95;;
50393;SDS011;36308;46.312;25.288;2022-08-24T00:03:42;6.28;;;3.40;;
50393;SDS011;36308;46.312;25.288;2022-08-24T00:06:11;6.15;;;3.70;;
50393;SDS011;36308;46.312;25.288;2022-08-24T00:08:43;6.10;;;4.07;;
50393;SDS011;36308;46.312;25.288;2022-08-24T00:11:09;6.30;;;3.33;;
50393;SDS011;36308;46.312;25.288;2022-08-24T00:13:35;9.43;;;4.07;;
50393;SDS011;36308;46.312;25.288;2022-08-24T00:16:03;6.13;;;3.50;;
50393;SDS011;36308;46.312;25.288;2022-08-24T00:18:29;5.15;;;3.80;;
50393;SDS011;36308;46.312;25.288;2022-08-24T00:20:55;6.70;;;4.00;;
50393;SDS011;36308;46.312;25.288;2022-08-24T00:23:20;5.10;;;3.83;;
50393;SDS011;36308;46.312;25.288;2022-08-24T00:25:46;8.02;;;3.95;;
50393;SDS011;36308;46.312;25.288;2022-08-24T00:28:11;6.57;;;3.70;;
50393;SDS011;36308;46.312;25.288;2022-08-24T00:30:37;5.13;;;3.60;;
50393;SDS011;36308;46.312;25.288;2022-08-24T00:33:03;11.32;;;3.55;;
50393;SDS011;36308;46.312;25.288;2022-08-24T00:35:29;5.00;;;3.45;;
50393;SDS011;36308;46.312;25.288;2022-08-24T00:37:55;4.30;;;3.28;;
50393;SDS011;36308;46.312;25.288;2022-08-24T00:40:22;8.30;;;3.20;;
50393;SDS011;36308;46.312;25.288;2022-08-24T00:42:50;17.20;;;3.90;;
50393;SDS011;36308;46.312;25.288;2022-08-24T00:45:17;4.60;;;3.42;;
50393;SDS011;36308;46.312;25.288;2022-08-24T00:47:48;4.00;;;3.05;;
50393;SDS011;36308;46.312;25.288;2022-08-24T00:50:29;5.50;;;2.97;;
50393;SDS011;36308;46.312;25.288;2022-08-24T00:53:27;5.65;;;3.08;;
50393;SDS011;36308;46.312;25.288;2022-08-24T00:55:58;6.20;;;2.97;;
50393;SDS011;36308;46.312;25.288;2022-08-24T01:00:58;4.20;;;2.92;;
50393;SDS011;36308;46.312;25.288;2022-08-24T01:03:27;6.97;;;3.40;;
50393;SDS011;36308;46.312;25.288;2022-08-24T01:05:53;5.13;;;3.00;;
50393;SDS011;36308;46.312;25.288;2022-08-24T01:08:20;5.07;;;3.17;;
50393;SDS011;36308;46.312;25.288;2022-08-24T01:11:09;6.38;;;3.00;;
50393;SDS011;36308;46.312;25.288;2022-08-24T01:13:39;6.63;;;2.88;;
50393;SDS011;36308;46.312;25.288;2022-08-24T01:16:07;4.97;;;3.17;;
50393;SDS011;36308;46.312;25.288;2022-08-24T01:18:33;5.65;;;2.60;;
50393;SDS011;36308;46.312;25.288;2022-08-24T01:23:50;6.50;;;2.88;;
50393;SDS011;36308;46.312;25.288;2022-08-24T01:26:20;7.65;;;3.50;;
50393;SDS011;36308;46.312;25.288;2022-08-24T01:28:57;4.00;;;3.10;;
50393;SDS011;36308;46.312;25.288;2022-08-24T01:31:26;5.85;;;3.00;;
50393;SDS011;36308;46.312;25.288;2022-08-24T01:33:53;5.35;;;3.13;;
50393;SDS011;36308;46.312;25.288;2022-08-24T01:36:33;6.80;;;3.35;;
50393;SDS011;36308;46.312;25.288;2022-08-24T01:39:05;6.88;;;3.65;;
50393;SDS011;36308;46.312;25.288;2022-08-24T01:41:34;3.97;;;2.78;;
50393;SDS011;36308;46.312;25.288;2022-08-24T01:44:00;5.90;;;3.20;;
50393;SDS011;36308;46.312;25.288;2022-08-24T01:46:25;5.97;;;3.50;;
50393;SDS011;36308;46.312;25.288;2022-08-24T01:48:51;4.93;;;3.33;;
50393;SDS011;36308;46.312;25.288;2022-08-24T01:51:17;4.15;;;2.90;;
50393;SDS011;36308;46.312;25.288;2022-08-24T01:53:44;5.53;;;3.00;;
50393;SDS011;36308;46.312;25.288;2022-08-24T01:56:10;5.93;;;2.50;;
50393;SDS011;36308;46.312;25.288;2022-08-24T01:58:41;6.70;;;3.40;;
50393;SDS011;36308;46.312;25.288;2022-08-24T02:01:08;4.93;;;3.20;;
50393;SDS011;36308;46.312;25.288;2022-08-24T02:03:33;4.72;;;3.08;;
50393;SDS011;36308;46.312;25.288;2022-08-24T02:05:59;3.60;;;2.70;;
50393;SDS011;36308;46.312;25.288;2022-08-24T02:08:24;4.82;;;3.28;;
50393;SDS011;36308;46.312;25.288;2022-08-24T02:10:50;5.40;;;2.72;;
50393;SDS011;36308;46.312;25.288;2022-08-24T02:13:15;5.40;;;3.05;;
50393;SDS011;36308;46.312;25.288;2022-08-24T02:15:40;6.00;;;2.92;;
50393;SDS011;36308;46.312;25.288;2022-08-24T02:18:07;5.57;;;3.25;;
50393;SDS011;36308;46.312;25.288;2022-08-24T02:20:34;8.60;;;3.30;;
50393;SDS011;36308;46.312;25.288;2022-08-24T02:23:01;5.03;;;2.90;;
50393;SDS011;36308;46.312;25.288;2022-08-24T02:25:27;4.70;;;2.75;;
50393;SDS011;36308;46.312;25.288;2022-08-24T02:27:55;4.65;;;2.97;;
50393;SDS011;36308;46.312;25.288;2022-08-24T02:30:22;7.65;;;3.15;;
50393;SDS011;36308;46.312;25.288;2022-08-24T02:32:47;6.03;;;2.90;;
50393;SDS011;36308;46.312;25.288;2022-08-24T02:35:13;3.40;;;2.53;;
50393;SDS011;36308;46.312;25.288;2022-08-24T02:37:39;5.32;;;3.17;;
50393;SDS011;36308;46.312;25.288;2022-08-24T02:40:05;4.70;;;2.80;;
50393;SDS011;36308;46.312;25.288;2022-08-24T02:42:32;5.07;;;2.92;;
50393;SDS011;36308;46.312;25.288;2022-08-24T02:44:59;4.93;;;2.88;;
50393;SDS011;36308;46.312;25.288;2022-08-24T02:47:25;7.20;;;2.78;;
50393;SDS011;36308;46.312;25.288;2022-08-24T02:49:50;4.22;;;2.45;;
50393;SDS011;36308;46.312;25.288;2022-08-24T02:52:16;3.30;;;2.53;;
50393;SDS011;36308;46.312;25.288;2022-08-24T02:54:41;5.25;;;2.70;;
50393;SDS011;36308;46.312;25.288;2022-08-24T02:57:06;6.10;;;2.38;;
50393;SDS011;36308;46.312;25.288;2022-08-24T02:59:32;5.43;;;2.70;;
50393;SDS011;36308;46.312;25.288;2022-08-24T03:01:57;5.93;;;3.28;;
50393;SDS011;36308;46.312;25.288;2022-08-24T03:04:23;7.35;;;3.03;;
50393;SDS011;36308;46.312;25.288;2022-08-24T03:06:48;5.63;;;3.33;;
50393;SDS011;36308;46.312;25.288;2022-08-24T03:09:14;4.78;;;3.22;;
50393;SDS011;36308;46.312;25.288;2022-08-24T03:11:40;4.25;;;3.53;;
50393;SDS011;36308;46.312;25.288;2022-08-24T03:14:05;5.25;;;2.95;;
50393;SDS011;36308;46.312;25.288;2022-08-24T03:16:32;5.20;;;3.10;;
50393;SDS011;36308;46.312;25.288;2022-08-24T03:18:58;4.65;;;3.20;;
50393;SDS011;36308;46.312;25.288;2022-08-24T03:21:24;4.10;;;3.10;;
50393;SDS011;36308;46.312;25.288;2022-08-24T03:23:50;7.10;;;3.40;;
50393;SDS011;36308;46.312;25.288;2022-08-24T03:26:16;5.90;;;3.50;;
50393;SDS011;36308;46.312;25.288;2022-08-24T03:28:42;5.00;;;3.28;;
50393;SDS011;36308;46.312;25.288;2022-08-24T03:31:08;7.20;;;3.58;;
50393;SDS011;36308;46.312;25.288;2022-08-24T03:33:33;7.32;;;3.47;;
50393;SDS011;36308;46.312;25.288;2022-08-24T03:35:59;11.05;;;3.70;;
50393;SDS011;36308;46.312;25.288;2022-08-24T03:38:24;8.23;;;4.43;;
50393;SDS011;36308;46.312;25.288;2022-08-24T03:40:50;10.02;;;4.68;;
50393;SDS011;36308;46.312;25.288;2022-08-24T03:43:15;9.65;;;3.80;;
50393;SDS011;36308;46.312;25.288;2022-08-24T03:46:00;5.65;;;4.07;;
50393;SDS011;36308;46.312;25.288;2022-08-24T03:48:27;7.43;;;4.18;;
50393;SDS011;36308;46.312;25.288;2022-08-24T03:50:55;6.97;;;4.03;;
50393;SDS011;36308;46.312;25.288;2022-08-24T03:53:21;7.40;;;4.07;;
50393;SDS011;36308;46.312;25.288;2022-08-24T03:55:46;10.70;;;5.00;;
50393;SDS011;36308;46.312;25.288;2022-08-24T03:58:12;6.10;;;4.45;;
50393;SDS011;36308;46.312;25.288;2022-08-24T04:00:38;9.65;;;5.28;;
50393;SDS011;36308;46.312;25.288;2022-08-24T04:03:06;7.35;;;4.95;;
50393;SDS011;36308;46.312;25.288;2022-08-24T04:05:36;6.35;;;4.78;;
50393;SDS011;36308;46.312;25.288;2022-08-24T04:08:02;7.88;;;4.20;;
50393;SDS011;36308;46.312;25.288;2022-08-24T04:10:29;5.53;;;4.00;;
50393;SDS011;36308;46.312;25.288;2022-08-24T04:12:56;7.55;;;3.60;;
50393;SDS011;36308;46.312;25.288;2022-08-24T04:15:22;7.70;;;4.32;;
50393;SDS011;36308;46.312;25.288;2022-08-24T04:17:49;7.50;;;4.32;;
50393;SDS011;36308;46.312;25.288;2022-08-24T04:20:14;6.78;;;4.00;;
50393;SDS011;36308;46.312;25.288;2022-08-24T04:22:40;6.85;;;3.90;;
50393;SDS011;36308;46.312;25.288;2022-08-24T04:25:06;6.88;;;3.85;;
50393;SDS011;36308;46.312;25.288;2022-08-24T04:27:32;8.43;;;4.40;;
50393;SDS011;36308;46.312;25.288;2022-08-24T04:29:58;7.85;;;5.05;;
50393;SDS011;36308;46.312;25.288;2022-08-24T04:32:24;8.27;;;4.95;;
50393;SDS011;36308;46.312;25.288;2022-08-24T04:34:49;9.60;;;5.18;;
50393;SDS011;36308;46.312;25.288;2022-08-24T04:37:15;11.38;;;5.00;;
50393;SDS011;36308;46.312;25.288;2022-08-24T04:39:41;8.10;;;4.00;;
50393;SDS011;36308;46.312;25.288;2022-08-24T04:42:07;6.47;;;3.90;;
50393;SDS011;36308;46.312;25.288;2022-08-24T04:44:33;6.85;;;4.32;;
50393;SDS011;36308;46.312;25.288;2022-08-24T04:46:59;7.65;;;4.85;;
50393;SDS011;36308;46.312;25.288;2022-08-24T04:49:25;10.38;;;5.25;;
50393;SDS011;36308;46.312;25.288;2022-08-24T04:51:51;9.85;;;5.20;;
50393;SDS011;36308;46.312;25.288;2022-08-24T04:54:17;9.95;;;5.05;;
50393;SDS011;36308;46.312;25.288;2022-08-24T04:56:43;5.15;;;4.00;;
50393;SDS011;36308;46.312;25.288;2022-08-24T04:59:08;4.55;;;3.40;;
50393;SDS011;36308;46.312;25.288;2022-08-24T05:01:34;6.22;;;3.92;;
50393;SDS011;36308;46.312;25.288;2022-08-24T05:04:00;9.23;;;3.83;;
50393;SDS011;36308;46.312;25.288;2022-08-24T05:06:29;7.88;;;4.45;;
50393;SDS011;36308;46.312;25.288;2022-08-24T05:08:59;7.32;;;4.20;;
50393;SDS011;36308;46.312;25.288;2022-08-24T05:11:25;7.88;;;4.55;;
50393;SDS011;36308;46.312;25.288;2022-08-24T05:13:52;7.47;;;4.40;;
50393;SDS011;36308;46.312;25.288;2022-08-24T05:16:20;8.10;;;4.25;;
50393;SDS011;36308;46.312;25.288;2022-08-24T05:18:47;9.38;;;3.97;;
50393;SDS011;36308;46.312;25.288;2022-08-24T05:21:13;8.93;;;4.80;;
50393;SDS011;36308;46.312;25.288;2022-08-24T05:23:41;7.75;;;4.00;;
50393;SDS011;36308;46.312;25.288;2022-08-24T05:26:09;7.28;;;4.40;;
50393;SDS011;36308;46.312;25.288;2022-08-24T05:28:39;8.70;;;5.18;;
50393;SDS011;36308;46.312;25.288;2022-08-24T05:31:10;7.38;;;3.88;;
50393;SDS011;36308;46.312;25.288;2022-08-24T05:33:37;10.52;;;5.75;;
50393;SDS011;36308;46.312;25.288;2022-08-24T05:36:04;7.80;;;5.07;;
50393;SDS011;36308;46.312;25.288;2022-08-24T05:38:31;10.40;;;4.60;;
50393;SDS011;36308;46.312;25.288;2022-08-24T05:40:57;11.35;;;4.70;;
50393;SDS011;36308;46.312;25.288;2022-08-24T05:43:27;9.68;;;4.25;;
50393;SDS011;36308;46.312;25.288;2022-08-24T05:45:53;7.82;;;4.07;;
50393;SDS011;36308;46.312;25.288;2022-08-24T05:48:19;4.57;;;3.50;;
50393;SDS011;36308;46.312;25.288;2022-08-24T05:50:50;6.18;;;4.40;;
50393;SDS011;36308;46.312;25.288;2022-08-24T05:53:17;6.93;;;3.88;;
50393;SDS011;36308;46.312;25.288;2022-08-24T05:55:42;8.77;;;3.90;;
50393;SDS011;36308;46.312;25.288;2022-08-24T05:58:08;6.15;;;4.10;;
50393;SDS011;36308;46.312;25.288;2022-08-24T06:00:33;6.63;;;3.33;;
50393;SDS011;36308;46.312;25.288;2022-08-24T06:03:00;6.80;;;3.67;;
50393;SDS011;36308;46.312;25.288;2022-08-24T06:05:26;8.18;;;3.90;;
50393;SDS011;36308;46.312;25.288;2022-08-24T06:07:51;8.32;;;3.63;;
50393;SDS011;36308;46.312;25.288;2022-08-24T06:10:18;7.85;;;4.28;;
50393;SDS011;36308;46.312;25.288;2022-08-24T06:12:43;8.45;;;4.03;;
50393;SDS011;36308;46.312;25.288;2022-08-24T06:15:09;8.02;;;4.10;;
50393;SDS011;36308;46.312;25.288;2022-08-24T06:17:35;7.03;;;3.90;;
50393;SDS011;36308;46.312;25.288;2022-08-24T06:20:01;5.53;;;3.25;;
50393;SDS011;36308;46.312;25.288;2022-08-24T06:22:27;7.15;;;3.58;;
50393;SDS011;36308;46.312;25.288;2022-08-24T06:24:52;6.95;;;3.47;;
50393;SDS011;36308;46.312;25.288;2022-08-24T06:27:36;4.55;;;3.20;;
50393;SDS011;36308;46.312;25.288;2022-08-24T06:30:05;6.30;;;3.28;;
50393;SDS011;36308;46.312;25.288;2022-08-24T06:32:36;4.88;;;2.75;;
50393;SDS011;36308;46.312;25.288;2022-08-24T06:35:03;7.43;;;3.30;;
50393;SDS011;36308;46.312;25.288;2022-08-24T06:37:29;4.68;;;3.20;;
50393;SDS011;36308;46.312;25.288;2022-08-24T06:39:55;6.10;;;3.03;;
50393;SDS011;36308;46.312;25.288;2022-08-24T06:42:22;8.05;;;3.30;;
50393;SDS011;36308;46.312;25.288;2022-08-24T06:44:53;5.05;;;3.38;;
50393;SDS011;36308;46.312;25.288;2022-08-24T06:47:19;4.18;;;2.80;;
50393;SDS011;36308;46.312;25.288;2022-08-24T06:49:45;9.63;;;3.05;;
50393;SDS011;36308;46.312;25.288;2022-08-24T06:52:10;9.60;;;3.45;;
50393;SDS011;36308;46.312;25.288;2022-08-24T06:54:36;6.68;;;3.00;;
50393;SDS011;36308;46.312;25.288;2022-08-24T06:57:02;7.10;;;3.00;;
50393;SDS011;36308;46.312;25.288;2022-08-24T06:59:28;7.10;;;2.80;;
50393;SDS011;36308;46.312;25.288;2022-08-24T07:01:54;6.10;;;2.50;;
50393;SDS011;36308;46.312;25.288;2022-08-24T07:04:21;6.10;;;2.55;;
50393;SDS011;36308;46.312;25.288;2022-08-24T07:06:47;6.40;;;2.90;;
50393;SDS011;36308;46.312;25.288;2022-08-24T07:09:13;6.63;;;2.60;;
50393;SDS011;36308;46.312;25.288;2022-08-24T07:11:40;6.65;;;2.45;;
50393;SDS011;36308;46.312;25.288;2022-08-24T07:14:05;6.50;;;2.95;;
50393;SDS011;36308;46.312;25.288;2022-08-24T07:16:31;4.63;;;2.88;;
50393;SDS011;36308;46.312;25.288;2022-08-24T07:18:58;3.90;;;2.88;;
50393;SDS011;36308;46.312;25.288;2022-08-24T07:21:23;3.90;;;2.72;;
50393;SDS011;36308;46.312;25.288;2022-08-24T07:23:49;6.85;;;2.92;;
50393;SDS011;36308;46.312;25.288;2022-08-24T07:26:19;4.93;;;3.17;;
50393;SDS011;36308;46.312;25.288;2022-08-24T07:28:47;5.40;;;3.00;;
50393;SDS011;36308;46.312;25.288;2022-08-24T07:31:25;4.85;;;3.22;;
50393;SDS011;36308;46.312;25.288;2022-08-24T07:33:50;4.45;;;2.85;;
50393;SDS011;36308;46.312;25.288;2022-08-24T07:36:16;4.25;;;2.88;;
50393;SDS011;36308;46.312;25.288;2022-08-24T07:38:43;9.38;;;3.40;;
50393;SDS011;36308;46.312;25.288;2022-08-24T07:41:09;7.30;;;3.28;;
50393;SDS011;36308;46.312;25.288;2022-08-24T07:43:34;4.65;;;2.65;;
50393;SDS011;36308;46.312;25.288;2022-08-24T07:46:00;5.82;;;2.90;;
50393;SDS011;36308;46.312;25.288;2022-08-24T07:48:25;8.07;;;3.78;;
50393;SDS011;36308;46.312;25.288;2022-08-24T07:50:52;5.70;;;2.50;;
50393;SDS011;36308;46.312;25.288;2022-08-24T07:53:18;5.65;;;2.90;;
50393;SDS011;36308;46.312;25.288;2022-08-24T07:55:53;4.97;;;3.28;;
50393;SDS011;36308;46.312;25.288;2022-08-24T07:58:20;7.00;;;2.67;;
50393;SDS011;36308;46.312;25.288;2022-08-24T08:00:46;5.82;;;2.80;;
50393;SDS011;36308;46.312;25.288;2022-08-24T08:03:13;12.30;;;3.80;;
50393;SDS011;36308;46.312;25.288;2022-08-24T08:05:38;6.43;;;2.72;;
50393;SDS011;36308;46.312;25.288;2022-08-24T08:08:07;7.25;;;2.70;;
50393;SDS011;36308;46.312;25.288;2022-08-24T08:10:33;6.45;;;2.60;;
50393;SDS011;36308;46.312;25.288;2022-08-24T08:13:03;3.78;;;2.53;;
50393;SDS011;36308;46.312;25.288;2022-08-24T08:15:29;7.85;;;2.72;;
50393;SDS011;36308;46.312;25.288;2022-08-24T08:17:55;6.53;;;2.67;;
50393;SDS011;36308;46.312;25.288;2022-08-24T08:20:21;4.78;;;2.33;;
50393;SDS011;36308;46.312;25.288;2022-08-24T08:22:47;5.50;;;2.78;;
50393;SDS011;36308;46.312;25.288;2022-08-24T08:25:31;4.03;;;2.13;;
50393;SDS011;36308;46.312;25.288;2022-08-24T08:27:57;4.18;;;2.60;;
50393;SDS011;36308;46.312;25.288;2022-08-24T08:30:22;4.57;;;2.97;;
50393;SDS011;36308;46.312;25.288;2022-08-24T08:32:48;4.32;;;2.50;;
50393;SDS011;36308;46.312;25.288;2022-08-24T08:35:13;3.75;;;1.98;;
50393;SDS011;36308;46.312;25.288;2022-08-24T08:37:39;3.33;;;2.17;;
50393;SDS011;36308;46.312;25.288;2022-08-24T08:40:06;7.30;;;2.70;;
50393;SDS011;36308;46.312;25.288;2022-08-24T08:59:46;6.78;;;2.40;;
50393;SDS011;36308;46.312;25.288;2022-08-24T09:02:51;4.00;;;2.60;;
50393;SDS011;36308;46.312;25.288;2022-08-24T09:24:46;6.43;;;2.60;;
50393;SDS011;36308;46.312;25.288;2022-08-24T09:30:11;5.95;;;2.55;;
50393;SDS011;36308;46.312;25.288;2022-08-24T09:35:58;2.35;;;1.95;;
50393;SDS011;36308;46.312;25.288;2022-08-24T09:50:18;7.20;;;2.33;;
50393;SDS011;36308;46.312;25.288;2022-08-24T10:20:55;6.00;;;2.80;;
50393;SDS011;36308;46.312;25.288;2022-08-24T10:31:11;8.38;;;2.40;;
50393;SDS011;36308;46.312;25.288;2022-08-24T10:45:55;6.47;;;2.50;;
50393;SDS011;36308;46.312;25.288;2022-08-24T10:54:04;15.32;;;4.25;;
50393;SDS011;36308;46.312;25.288;2022-08-24T10:56:35;7.65;;;2.60;;
50393;SDS011;36308;46.312;25.288;2022-08-24T11:01:58;8.27;;;2.28;;
50393;SDS011;36308;46.312;25.288;2022-08-24T11:05:00;10.88;;;2.45;;
50393;SDS011;36308;46.312;25.288;2022-08-24T11:07:33;8.75;;;2.60;;
50393;SDS011;36308;46.312;25.288;2022-08-24T11:10:02;8.63;;;2.78;;
50393;SDS011;36308;46.312;25.288;2022-08-24T11:12:40;10.73;;;3.22;;
50393;SDS011;36308;46.312;25.288;2022-08-24T11:17:59;8.43;;;2.92;;
50393;SDS011;36308;46.312;25.288;2022-08-24T11:20:30;7.95;;;2.90;;
50393;SDS011;36308;46.312;25.288;2022-08-24T11:23:03;11.35;;;2.50;;
50393;SDS011;36308;46.312;25.288;2022-08-24T11:25:32;14.13;;;2.88;;
50393;SDS011;36308;46.312;25.288;2022-08-24T11:28:06;10.10;;;2.72;;
50393;SDS011;36308;46.312;25.288;2022-08-24T11:30:47;12.77;;;3.03;;
50393;SDS011;36308;46.312;25.288;2022-08-24T11:33:27;10.18;;;3.22;;
50393;SDS011;36308;46.312;25.288;2022-08-24T11:35:53;9.50;;;2.65;;
50393;SDS011;36308;46.312;25.288;2022-08-24T11:38:20;9.48;;;3.60;;
50393;SDS011;36308;46.312;25.288;2022-08-24T11:40:51;13.82;;;3.17;;
50393;SDS011;36308;46.312;25.288;2022-08-24T11:43:24;14.75;;;3.15;;
50393;SDS011;36308;46.312;25.288;2022-08-24T12:02:03;8.93;;;2.97;;
50393;SDS011;36308;46.312;25.288;2022-08-24T12:06:59;10.50;;;3.10;;
50393;SDS011;36308;46.312;25.288;2022-08-24T12:15:22;9.55;;;2.60;;
50393;SDS011;36308;46.312;25.288;2022-08-24T12:17:54;11.98;;;2.97;;
50393;SDS011;36308;46.312;25.288;2022-08-24T12:20:34;11.50;;;2.88;;
50393;SDS011;36308;46.312;25.288;2022-08-24T12:23:05;12.93;;;3.10;;
50393;SDS011;36308;46.312;25.288;2022-08-24T12:25:33;10.75;;;3.08;;
50393;SDS011;36308;46.312;25.288;2022-08-24T12:28:23;11.88;;;3.05;;
50393;SDS011;36308;46.312;25.288;2022-08-24T12:31:05;13.93;;;3.63;;
50393;SDS011;36308;46.312;25.288;2022-08-24T12:33:53;12.48;;;3.45;;
50393;SDS011;36308;46.312;25.288;2022-08-24T12:36:26;12.73;;;3.30;;
50393;SDS011;36308;46.312;25.288;2022-08-24T12:39:03;13.48;;;3.17;;
50393;SDS011;36308;46.312;25.288;2022-08-24T12:41:53;13.00;;;3.10;;
50393;SDS011;36308;46.312;25.288;2022-08-24T12:45:13;8.48;;;2.88;;
50393;SDS011;36308;46.312;25.288;2022-08-24T12:47:19;12.55;;;2.95;;
50393;SDS011;36308;46.312;25.288;2022-08-24T12:49:52;12.35;;;4.07;;
50393;SDS011;36308;46.312;25.288;2022-08-24T12:58:05;12.57;;;2.97;;
50393;SDS011;36308;46.312;25.288;2022-08-24T13:00:48;10.40;;;2.95;;
50393;SDS011;36308;46.312;25.288;2022-08-24T13:03:34;10.52;;;3.17;;
50393;SDS011;36308;46.312;25.288;2022-08-24T13:09:14;16.20;;;3.75;;
50393;SDS011;36308;46.312;25.288;2022-08-24T13:11:51;14.90;;;3.10;;
50393;SDS011;36308;46.312;25.288;2022-08-24T13:14:24;12.00;;;3.45;;
50393;SDS011;36308;46.312;25.288;2022-08-24T13:21:59;16.23;;;3.95;;
50393;SDS011;36308;46.312;25.288;2022-08-24T13:26:54;12.98;;;2.88;;
50393;SDS011;36308;46.312;25.288;2022-08-24T13:29:27;8.48;;;3.00;;
50393;SDS011;36308;46.312;25.288;2022-08-24T13:31:57;13.30;;;3.33;;
50393;SDS011;36308;46.312;25.288;2022-08-24T13:37:14;10.45;;;2.95;;
50393;SDS011;36308;46.312;25.288;2022-08-24T13:50:42;9.85;;;3.05;;
50393;SDS011;36308;46.312;25.288;2022-08-24T14:05:10;12.65;;;3.55;;
50393;SDS011;36308;46.312;25.288;2022-08-24T14:07:53;14.40;;;3.20;;
50393;SDS011;36308;46.312;25.288;2022-08-24T14:16:44;12.90;;;3.15;;
50393;SDS011;36308;46.312;25.288;2022-08-24T14:25:22;7.22;;;2.75;;
50393;SDS011;36308;46.312;25.288;2022-08-24T14:38:08;14.48;;;2.90;;
50393;SDS011;36308;46.312;25.288;2022-08-24T14:40:39;13.18;;;3.05;;
50393;SDS011;36308;46.312;25.288;2022-08-24T14:43:20;10.05;;;2.80;;
50393;SDS011;36308;46.312;25.288;2022-08-24T14:48:31;9.25;;;2.42;;
50393;SDS011;36308;46.312;25.288;2022-08-24T14:56:09;10.00;;;2.70;;
50393;SDS011;36308;46.312;25.288;2022-08-24T15:01:34;8.70;;;2.90;;
50393;SDS011;36308;46.312;25.288;2022-08-24T15:06:55;6.32;;;2.40;;
50393;SDS011;36308;46.312;25.288;2022-08-24T15:09:31;11.10;;;2.78;;
50393;SDS011;36308;46.312;25.288;2022-08-24T15:12:44;9.38;;;2.47;;
50393;SDS011;36308;46.312;25.288;2022-08-24T15:23:48;8.68;;;2.60;;
50393;SDS011;36308;46.312;25.288;2022-08-24T15:26:19;6.03;;;2.60;;
50393;SDS011;36308;46.312;25.288;2022-08-24T15:28:49;7.20;;;3.22;;
50393;SDS011;36308;46.312;25.288;2022-08-24T15:31:21;11.25;;;2.72;;
50393;SDS011;36308;46.312;25.288;2022-08-24T15:34:00;6.28;;;2.17;;
50393;SDS011;36308;46.312;25.288;2022-08-24T15:36:28;6.38;;;2.25;;
50393;SDS011;36308;46.312;25.288;2022-08-24T15:38:57;9.32;;;2.20;;
50393;SDS011;36308;46.312;25.288;2022-08-24T15:41:25;7.45;;;2.70;;
50393;SDS011;36308;46.312;25.288;2022-08-24T15:43:57;7.65;;;3.40;;
50393;SDS011;36308;46.312;25.288;2022-08-24T15:46:46;6.00;;;2.17;;
50393;SDS011;36308;46.312;25.288;2022-08-24T15:49:19;6.95;;;2.50;;
50393;SDS011;36308;46.312;25.288;2022-08-24T15:51:56;8.68;;;2.47;;
50393;SDS011;36308;46.312;25.288;2022-08-24T15:56:53;7.90;;;2.58;;
50393;SDS011;36308;46.312;25.288;2022-08-24T15:59:45;10.15;;;2.10;;
50393;SDS011;36308;46.312;25.288;2022-08-24T16:10:33;5.70;;;2.05;;
50393;SDS011;36308;46.312;25.288;2022-08-24T16:13:17;7.68;;;3.60;;
50393;SDS011;36308;46.312;25.288;2022-08-24T16:16:07;6.78;;;2.80;;
50393;SDS011;36308;46.312;25.288;2022-08-24T16:18:55;8.82;;;3.05;;
50393;SDS011;36308;46.312;25.288;2022-08-24T16:29:33;7.80;;;2.63;;
50393;SDS011;36308;46.312;25.288;2022-08-24T16:32:08;8.43;;;2.67;;
50393;SDS011;36308;46.312;25.288;2022-08-24T16:34:43;7.45;;;2.53;;
50393;SDS011;36308;46.312;25.288;2022-08-24T16:37:12;5.63;;;2.13;;
50393;SDS011;36308;46.312;25.288;2022-08-24T16:39:38;10.95;;;3.15;;
50393;SDS011;36308;46.312;25.288;2022-08-24T16:42:06;7.30;;;2.88;;
50393;SDS011;36308;46.312;25.288;2022-08-24T16:44:40;9.60;;;3.03;;
50393;SDS011;36308;46.312;25.288;2022-08-24T16:47:07;7.70;;;2.55;;
50393;SDS011;36308;46.312;25.288;2022-08-24T16:49:34;8.80;;;2.17;;
50393;SDS011;36308;46.312;25.288;2022-08-24T16:52:00;5.97;;;2.38;;
50393;SDS011;36308;46.312;25.288;2022-08-24T16:54:27;6.68;;;2.38;;
50393;SDS011;36308;46.312;25.288;2022-08-24T16:56:56;6.97;;;3.00;;
50393;SDS011;36308;46.312;25.288;2022-08-24T16:59:29;8.00;;;2.53;;
50393;SDS011;36308;46.312;25.288;2022-08-24T17:01:57;6.45;;;3.00;;
50393;SDS011;36308;46.312;25.288;2022-08-24T17:04:23;9.07;;;4.13;;
50393;SDS011;36308;46.312;25.288;2022-08-24T17:06:50;14.90;;;4.18;;
50393;SDS011;36308;46.312;25.288;2022-08-24T17:09:16;23.55;;;15.27;;
50393;SDS011;36308;46.312;25.288;2022-08-24T17:11:43;14.68;;;7.13;;
50393;SDS011;36308;46.312;25.288;2022-08-24T17:14:08;10.35;;;5.43;;
50393;SDS011;36308;46.312;25.288;2022-08-24T17:16:34;9.73;;;4.60;;
50393;SDS011;36308;46.312;25.288;2022-08-24T17:19:01;11.18;;;3.90;;
50393;SDS011;36308;46.312;25.288;2022-08-24T17:21:30;9.10;;;3.15;;
50393;SDS011;36308;46.312;25.288;2022-08-24T17:23:56;9.07;;;3.92;;
50393;SDS011;36308;46.312;25.288;2022-08-24T17:26:21;14.18;;;3.47;;
50393;SDS011;36308;46.312;25.288;2022-08-24T17:28:48;13.25;;;3.70;;
50393;SDS011;36308;46.312;25.288;2022-08-24T17:31:16;13.38;;;3.53;;
50393;SDS011;36308;46.312;25.288;2022-08-24T17:33:41;12.35;;;3.20;;
50393;SDS011;36308;46.312;25.288;2022-08-24T17:36:07;17.58;;;3.88;;
50393;SDS011;36308;46.312;25.288;2022-08-24T17:38:35;16.35;;;3.92;;
50393;SDS011;36308;46.312;25.288;2022-08-24T17:41:10;11.38;;;3.22;;
50393;SDS011;36308;46.312;25.288;2022-08-24T17:43:36;11.50;;;3.10;;
50393;SDS011;36308;46.312;25.288;2022-08-24T17:46:01;9.30;;;3.28;;
50393;SDS011;36308;46.312;25.288;2022-08-24T17:48:27;12.25;;;3.55;;
50393;SDS011;36308;46.312;25.288;2022-08-24T17:50:52;10.70;;;3.90;;
50393;SDS011;36308;46.312;25.288;2022-08-24T17:53:18;9.07;;;3.20;;
50393;SDS011;36308;46.312;25.288;2022-08-24T17:55:44;10.30;;;3.05;;
50393;SDS011;36308;46.312;25.288;2022-08-24T17:58:09;10.93;;;2.83;;
50393;SDS011;36308;46.312;25.288;2022-08-24T18:00:35;8.02;;;2.55;;
50393;SDS011;36308;46.312;25.288;2022-08-24T18:03:01;6.78;;;3.25;;
50393;SDS011;36308;46.312;25.288;2022-08-24T18:05:27;9.20;;;3.38;;
50393;SDS011;36308;46.312;25.288;2022-08-24T18:07:56;6.68;;;3.03;;
50393;SDS011;36308;46.312;25.288;2022-08-24T18:10:24;13.88;;;3.78;;
50393;SDS011;36308;46.312;25.288;2022-08-24T18:15:21;12.48;;;3.25;;
50393;SDS011;36308;46.312;25.288;2022-08-24T18:17:50;11.65;;;3.45;;
50393;SDS011;36308;46.312;25.288;2022-08-24T18:20:20;13.18;;;4.05;;
50393;SDS011;36308;46.312;25.288;2022-08-24T18:22:49;12.13;;;3.55;;
50393;SDS011;36308;46.312;25.288;2022-08-24T18:25:14;12.57;;;3.53;;
50393;SDS011;36308;46.312;25.288;2022-08-24T18:27:41;12.40;;;3.72;;
50393;SDS011;36308;46.312;25.288;2022-08-24T18:30:15;10.00;;;3.42;;
50393;SDS011;36308;46.312;25.288;2022-08-24T18:32:45;12.10;;;3.65;;
50393;SDS011;36308;46.312;25.288;2022-08-24T18:35:11;9.27;;;2.85;;
50393;SDS011;36308;46.312;25.288;2022-08-24T18:37:36;11.15;;;2.95;;
50393;SDS011;36308;46.312;25.288;2022-08-24T18:40:03;7.72;;;2.80;;
50393;SDS011;36308;46.312;25.288;2022-08-24T18:42:29;9.48;;;3.20;;
50393;SDS011;36308;46.312;25.288;2022-08-24T18:44:56;12.18;;;3.28;;
50393;SDS011;36308;46.312;25.288;2022-08-24T18:47:21;11.85;;;3.38;;
50393;SDS011;36308;46.312;25.288;2022-08-24T18:49:47;15.30;;;3.58;;
50393;SDS011;36308;46.312;25.288;2022-08-24T18:52:13;13.00;;;3.08;;
50393;SDS011;36308;46.312;25.288;2022-08-24T18:54:41;8.20;;;3.45;;